Latest Weather Observations for Lucinda

IDQ60801

Issued at 10:03 pm EST Sunday 28 August 2016 (issued every 30 minutes, with the page automatically refreshed every 10 minutes)

About weather observations | Map of weather stations | Latest weather observations for QLD | Other Formats
Station Details ID: 032141 Name: LUCINDA POINT Lat: -18.52 Lon: 146.39 Height: 10.0 m
Data from the previous 72 hours. | See also: Recent months at Lucinda
Date/Time
EST
Temp
°C
App
Temp
°C
Dew
Point
°C
Rel
Hum
%
Delta-T
°C
Wind Press
QNH
hPa
Press
MSL
hPa
Rain since
9am
mm
Dir  Spd
km/h
Gust
km/h
Spd
kts
Gust
kts
28/10:00pm 20.6 18.2 11.5 56 5.0 ESE 15 24 8 13 1020.7 1020.7 0.0
28/09:30pm 20.6 18.4 12.1 58 4.7 ESE 15 22 8 12 1020.8 1020.8 0.0
28/09:00pm 20.5 18.6 11.7 57 4.9 ESE 13 20 7 11 1020.8 1020.8 0.0
28/08:30pm 20.5 19.1 12.2 59 4.6 SSE 11 22 6 12 1020.7 1020.7 0.0
28/08:00pm 20.7 18.8 11.9 57 4.9 SE 13 26 7 14 1020.4 1020.4 0.0
28/07:30pm 20.5 18.9 11.7 57 4.9 SSE 11 20 6 11 1020.1 1020.1 0.0
28/07:00pm 20.5 18.5 11.4 56 5.0 ESE 13 24 7 13 1020.0 1020.0 0.0
28/06:30pm 20.7 18.9 12.1 58 4.8 ESE 13 26 7 14 1019.6 1019.6 0.0
28/06:00pm 20.9 19.7 11.5 55 5.2 SE 9 15 5 8 1019.5 1019.5 0.0
28/05:30pm 20.8 18.4 11.4 55 5.2 SE 15 22 8 12 1019.3 1019.3 0.0
28/05:00pm 21.0 18.9 11.1 53 5.4 SE 13 24 7 13 1019.2 1019.2 0.0
28/04:30pm 21.8 20.5 11.2 51 5.9 SE 9 20 5 11 1019.1 1019.1 0.0
28/04:00pm 21.7 20.6 12.0 54 5.4 SSE 9 13 5 7 1019.0 1019.0 0.0
28/03:30pm 21.7 20.5 11.7 53 5.6 SSE 9 17 5 9 1019.1 1019.1 0.0
28/03:00pm 21.6 19.6 11.6 53 5.6 SE 13 20 7 11 1019.3 1019.3 0.0
28/02:30pm 21.8 20.3 11.8 53 5.6 SE 11 19 6 10 1019.4 1019.4 0.0
28/02:00pm 21.7 19.9 10.8 50 6.0 SE 11 20 6 11 1019.9 1019.9 0.0
28/01:30pm 22.0 20.2 10.8 49 6.2 SE 11 17 6 9 1020.3 1020.3 0.0
28/01:00pm 22.1 20.8 11.2 50 6.0 SE 9 17 5 9 1020.6 1020.6 0.0
28/12:30pm 21.8 20.1 11.2 51 5.9 SE 11 17 6 9 1021.1 1021.1 0.0
28/12:00pm 21.1 19.8 11.4 54 5.4 SSE 9 15 5 8 1021.5 1021.5 0.0
28/11:30am 20.8 19.2 11.4 55 5.2 SSE 11 20 6 11 1021.9 1021.9 0.0
28/11:00am 21.0 18.4 10.8 52 5.6 SE 15 22 8 12 1022.4 1022.4 0.0
28/10:30am 21.2 19.5 12.6 58 4.9 SSE 13 22 7 12 1022.8 1022.8 0.0
28/10:00am 20.9 18.5 11.5 55 5.2 SE 15 24 8 13 1022.9 1022.9 0.0
28/09:30am 20.7 18.2 12.4 59 4.7 SE 17 30 9 16 1023.0 1023.0 0.0
28/09:00am 20.5 18.1 12.7 61 4.4 SE 17 30 9 16 1022.8 1022.8 0.0
28/08:30am 20.2 18.3 11.9 59 4.6 S 13 20 7 11 1022.5 1022.5 0.0
28/08:00am 20.1 17.7 11.3 57 4.8 SSE 15 24 8 13 1022.3 1022.3 0.0
28/07:30am 19.7 17.6 12.5 63 4.0 S 15 20 8 11 1021.9 1021.9 0.0
28/07:00am 19.9 17.8 12.4 62 4.2 S 15 22 8 12 1021.5 1021.5 0.0
28/06:30am 19.9 17.9 13.8 68 3.5 SSE 17 28 9 15 1020.9 1020.9 0.0
28/06:00am 20.0 18.3 13.7 67 3.6 S 15 22 8 12 1020.6 1020.6 0.0
28/05:30am 20.4 18.6 12.1 59 4.6 SE 13 22 7 12 1020.1 1020.1 0.0
28/05:00am 20.5 17.7 11.4 56 5.0 SE 17 30 9 16 1019.9 1019.9 0.0
28/04:30am 20.4 17.4 10.5 53 5.4 SE 17 28 9 15 1019.7 1019.7 0.0
28/04:00am 20.1 19.5 12.3 61 4.4 SW 7 15 4 8 1019.6 1019.6 0.0
28/03:30am 20.5 18.7 12.0 58 4.7 SE 13 20 7 11 1019.5 1019.5 0.0
28/03:00am 20.4 18.5 11.9 58 4.7 SSE 13 24 7 13 1019.7 1019.7 0.0
28/02:30am 20.4 18.7 11.3 56 5.0 S 11 19 6 10 1019.9 1019.9 0.0
28/02:00am 19.0 18.2 13.0 68 3.4 SW 9 15 5 8 1019.9 1019.9 0.0
28/01:30am 18.0 17.0 13.5 75 2.5 WSW 11 19 6 10 1020.3 1020.3 0.0
28/01:00am 17.6 15.2 12.7 73 2.7 W 17 20 9 11 1020.5 1020.5 0.0
28/12:30am 17.8 15.5 13.1 74 2.6 WSW 17 24 9 13 1020.7 1020.7 0.0
28/12:00am 20.5 20.1 13.0 62 4.2 SSE 7 15 4 8 1020.7 1020.7 0.0
 
Date/Time
EST
Temp
°C
App
Temp
°C
Dew
Point
°C
Rel
Hum
%
Delta-T
°C
Wind Press
QNH
hPa
Press
MSL
hPa
Rain since
9am
mm
Dir  Spd
km/h
Gust
km/h
Spd
kts
Gust
kts
27/11:30pm 20.5 19.6 12.5 60 4.5 S 9 15 5 8 1020.5 1020.5 0.0
27/11:00pm 20.5 19.6 12.7 61 4.4 SE 9 15 5 8 1020.5 1020.5 0.0
27/10:30pm 20.5 19.5 12.2 59 4.6 SSE 9 15 5 8 1020.7 1020.7 0.0
27/10:00pm 20.5 18.9 11.7 57 4.9 SE 11 17 6 9 1020.4 1020.4 0.0
27/09:30pm 20.5 18.8 11.2 55 5.1 SE 11 17 6 9 1020.5 1020.5 0.0
27/09:00pm 20.5 18.5 11.4 56 5.0 ESE 13 19 7 10 1020.3 1020.3 0.0
27/08:30pm 20.5 18.3 10.9 54 5.3 ESE 13 19 7 10 1020.2 1020.2 0.0
27/08:00pm 20.5 18.2 10.6 53 5.4 ESE 13 20 7 11 1020.1 1020.1 0.0
27/07:30pm 20.4 18.0 10.2 52 5.5 ESE 13 19 7 10 1020.0 1020.0 0.0
27/07:00pm 20.5 18.0 9.7 50 5.8 E 13 19 7 10 1019.6 1019.6 0.0
27/06:30pm 20.5 17.9 9.4 49 5.9 E 13 17 7 9 1019.3 1019.3 0.0
27/06:00pm 20.5 17.6 8.2 45 6.4 E 13 19 7 10 1019.2 1019.2 0.0
27/05:30pm 20.7 17.9 8.7 46 6.3 E 13 20 7 11 1019.0 1019.0 0.0
27/05:00pm 20.7 16.8 7.0 41 7.0 E 17 20 9 11 1018.8 1018.8 0.0
27/04:30pm 20.5 16.9 8.2 45 6.4 E 17 24 9 13 1018.5 1018.5 0.0
27/04:00pm 20.8 16.7 7.8 43 6.7 E 19 26 10 14 1018.4 1018.4 0.0
27/03:30pm 20.9 16.8 7.9 43 6.7 ESE 19 24 10 13 1018.4 1018.4 0.0
27/03:00pm 21.2 17.7 7.1 40 7.2 SE 15 22 8 12 1018.5 1018.5 0.0
27/02:30pm 21.3 18.2 7.2 40 7.2 SE 13 22 7 12 1018.6 1018.6 0.0
27/02:00pm 21.1 17.3 5.9 37 7.6 ESE 15 26 8 14 1018.8 1018.8 0.0
27/01:30pm 21.0 17.1 7.3 41 7.0 SE 17 30 9 16 1019.2 1019.2 0.0
27/01:00pm 20.5 17.1 6.1 39 7.2 S 13 26 7 14 1019.7 1019.7 0.0
27/12:30pm 20.2 15.4 7.2 43 6.6 S 22 32 12 17 1020.1 1020.1 0.0
27/12:00pm 20.0 15.0 8.0 46 6.2 S 24 32 13 17 1020.6 1020.6 0.0
27/11:30am 19.8 14.7 9.1 50 5.6 S 26 33 14 18 1020.8 1020.8 0.0
27/11:00am 19.7 15.0 9.3 51 5.5 S 24 30 13 16 1021.1 1021.1 0.0
27/10:30am 19.6 14.8 8.9 50 5.6 S 24 33 13 18 1021.4 1021.4 0.0
27/10:00am 19.7 16.0 8.1 47 6.0 S 17 28 9 15 1021.5 1021.5 0.0
27/09:30am 19.7 15.4 7.8 46 6.1 S 20 30 11 16 1021.2 1021.2 0.0
27/09:00am 19.6 15.3 7.7 46 6.1 S 20 35 11 19 1021.1 1021.1 0.0
27/08:30am 19.5 14.2 8.5 49 5.7 S 26 41 14 22 1021.0 1021.0 0.0
27/08:00am 19.6 13.5 8.3 48 5.8 S 30 37 16 20 1020.8 1020.8 0.0
27/07:30am 19.8 13.2 7.9 46 6.1 S 32 39 17 21 1020.6 1020.6 0.0
27/07:00am 19.8 13.1 7.2 44 6.4 S 32 39 17 21 1020.3 1020.3 0.0
27/06:30am 19.8 12.8 6.2 41 6.8 S 32 39 17 21 1019.9 1019.9 0.0
27/06:00am 19.9 13.1 7.6 45 6.3 S 33 41 18 22 1019.4 1019.4 0.0
27/05:30am 20.0 12.7 7.1 43 6.6 S 35 46 19 25 1018.8 1018.8 0.0
27/05:00am 20.2 12.9 7.2 43 6.6 S 35 43 19 23 1018.5 1018.5 0.0
27/04:30am 20.3 12.3 7.3 43 6.6 S 39 44 21 24 1018.3 1018.3 0.0
27/04:00am 20.5 13.5 8.5 46 6.3 S 35 44 19 24 1018.4 1018.4 0.0
27/03:30am 20.5 12.8 8.8 47 6.2 S 39 46 21 25 1018.2 1018.2 0.0
27/03:00am 20.6 12.3 7.6 43 6.7 S 41 50 22 27 1018.2 1018.2 0.0
27/02:30am 20.7 12.9 6.6 40 7.1 S 37 46 20 25 1018.2 1018.2 0.0
27/02:00am 20.9 12.6 7.9 43 6.7 S 41 52 22 28 1018.0 1018.0 0.0
27/01:30am 21.1 12.4 6.2 38 7.5 S 41 50 22 27 1018.1 1018.1 0.0
27/01:00am 21.3 12.0 6.0 37 7.7 S 44 54 24 29 1018.3 1018.3 0.0
27/12:30am 21.6 12.7 7.8 41 7.2 S 44 52 24 28 1018.3 1018.3 0.0
27/12:00am 21.8 13.1 7.6 40 7.3 S 43 52 23 28 1018.2 1018.2 0.0
 
Date/Time
EST
Temp
°C
App
Temp
°C
Dew
Point
°C
Rel
Hum
%
Delta-T
°C
Wind Press
QNH
hPa
Press
MSL
hPa
Rain since
9am
mm
Dir  Spd
km/h
Gust
km/h
Spd
kts
Gust
kts
26/11:30pm 22.0 12.7 5.8 35 8.1 S 44 54 24 29 1018.0 1018.0 0.0
26/11:00pm 22.1 12.5 7.9 40 7.4 S 48 57 26 31 1018.0 1018.0 0.0
26/10:30pm 22.5 12.6 6.7 36 8.1 S 48 56 26 30 1017.7 1017.7 0.0
26/10:00pm 22.9 14.2 10.0 44 7.0 S 46 54 25 29 1017.3 1017.3 0.0
26/09:30pm 23.2 14.1 8.5 39 7.8 S 46 54 25 29 1016.9 1016.9 0.0
26/09:00pm 23.5 16.5 9.9 42 7.4 S 37 50 20 27 1016.7 1016.7 0.0
26/08:30pm 23.6 18.3 12.6 50 6.3 S 32 43 17 23 1016.3 1016.3 0.0
26/08:00pm 23.7 19.5 12.4 49 6.4 S 26 37 14 20 1015.9 1015.9 0.0
26/07:30pm 23.6 22.1 14.3 56 5.5 SE 15 24 8 13 1015.4 1015.4 0.0
26/07:00pm 23.4 21.9 14.1 56 5.5 SE 15 24 8 13 1014.9 1014.9 0.0
26/06:30pm 23.5 21.6 14.2 56 5.5 SE 17 28 9 15 1014.3 1014.3 0.0
26/06:00pm 23.7 22.9 14.1 55 5.6 SSE 11 17 6 9 1013.8 1013.8 0.0
26/05:30pm 24.1 22.8 13.6 52 6.1 S 13 20 7 11 1013.6 1013.6 0.0
26/05:00pm 24.3 22.4 14.1 53 6.0 S 17 26 9 14 1013.3 1013.3 0.0
26/04:30pm 24.2 22.3 14.3 54 5.9 S 17 26 9 14 1013.2 1013.2 0.0
26/04:00pm 23.7 21.2 14.1 55 5.6 S 20 28 11 15 1012.9 1012.9 0.0
26/03:30pm 23.6 21.6 13.8 54 5.7 S 17 24 9 13 1013.0 1013.0 0.0
26/03:00pm 23.2 20.9 14.2 57 5.3 SSW 19 26 10 14 1013.1 1013.1 0.0
26/02:30pm 22.9 21.4 14.2 58 5.1 S 15 22 8 12 1013.2 1013.2 0.0
26/02:00pm 22.5 19.9 13.8 58 5.1 S 20 28 11 15 1013.3 1013.3 0.0
26/01:30pm 22.2 19.9 13.0 56 5.3 S 17 20 9 11 1013.7 1013.7 0.0
26/01:00pm 21.8 19.4 13.7 60 4.7 S 19 28 10 15 1014.1 1014.1 0.0
26/12:30pm 21.7 18.9 13.1 58 4.9 S 20 30 11 16 1014.4 1014.4 0.0
26/12:00pm 21.5 17.9 13.2 59 4.8 S 24 30 13 16 1015.0 1015.0 0.0
26/11:30am 21.5 18.3 14.2 63 4.3 S 24 30 13 16 1015.1 1015.1 0.0
26/11:00am 21.4 17.7 12.8 58 4.9 SSW 24 28 13 15 1016.0 1016.0 0.0
26/10:30am 21.1 16.9 13.5 62 4.4 SW 28 33 15 18 1016.5 1016.5 0.0
26/10:00am 20.9 17.2 15.0 69 3.5 SW 28 32 15 17 1016.7 1016.7 0.0
26/09:30am 20.7 17.6 15.5 72 3.1 WSW 26 32 14 17 1016.4 1016.4 0.0
26/09:00am 21.4 18.4 14.8 66 3.9 SSW 24 30 13 16 1016.2 1016.2 0.0
26/08:30am 21.5 18.3 16.2 72 3.2 SSW 28 33 15 18 1016.1 1016.1 0.0
26/08:00am 21.6 17.4 16.3 72 3.2 S 33 41 18 22 1015.7 1015.7 0.0
26/07:30am 21.9 19.3 17.7 77 2.6 S 28 33 15 18 1015.2 1015.2 0.0
26/07:00am 21.9 21.4 18.7 82 2.0 S 19 26 10 14 1014.8 1014.8 0.0
26/06:30am 21.6 20.4 19.2 86 1.5 S 24 26 13 14 1014.3 1014.3 0.0
26/06:00am 21.5 20.0 19.4 88 1.3 S 26 32 14 17 1014.0 1014.0 0.0
26/05:30am 21.8 22.5 20.4 92 0.9 SSW 17 20 9 11 1013.4 1013.4 0.0
26/05:00am 21.5 22.4 20.1 92 0.9 SSW 15 17 8 9 1013.1 1013.1 0.0
26/04:30am 21.5 21.1 20.1 92 0.9 SW 22 26 12 14 1013.2 1013.2 0.0
26/04:00am 21.4 21.4 20.2 93 0.8 SSW 20 26 11 14 1012.5 1012.5 0.0
26/03:30am 21.8 21.9 20.4 92 0.9 SW 20 22 11 12 1013.1 1013.1 0.0
26/03:00am 22.2 23.8 20.7 91 1.0 SW 13 17 7 9 1012.8 1012.8 0.0
26/02:30am 22.6 26.3 19.9 85 1.7 CALM 0 0 0 0 1013.1 1013.1 0.0
26/02:00am 22.8 25.2 20.1 85 1.7 SE 7 11 4 6 1013.0 1013.0 0.0
26/01:30am 22.8 24.8 20.0 84 1.8 SE 9 13 5 7 1013.1 1013.1 0.0
26/01:00am 23.0 23.9 20.0 83 1.9 ESE 15 19 8 10 1013.3 1013.3 0.0
26/12:30am 23.0 24.3 20.1 84 1.9 ESE 13 19 7 10 1013.7 1013.7 0.0
26/12:00am 23.1 23.6 20.1 83 1.9 ESE 17 24 9 13 1013.7 1013.7 0.0
 
Date/Time
EST
Temp
°C
App
Temp
°C
Dew
Point
°C
Rel
Hum
%
Delta-T
°C
Wind Press
QNH
hPa
Press
MSL
hPa
Rain since
9am
mm
Dir  Spd
km/h
Gust
km/h
Spd
kts
Gust
kts
25/11:30pm 23.1 24.8 20.2 84 1.9 ESE 11 19 6 10 1014.1 1014.1 0.0
25/11:00pm 23.1 24.8 20.1 83 1.9 ESE 11 17 6 9 1014.2 1014.2 0.0
25/10:30pm 23.1 24.4 20.1 83 1.9 ESE 13 19 7 10 1014.1 1014.1 0.0

Other Formats:

Comma delimited format used in spreadsheet applications
http://www.bom.gov.au/fwo/IDQ60801/IDQ60801.94295.axf

JavaScript Object Notation format (JSON) in row-major order
http://www.bom.gov.au/fwo/IDQ60801/IDQ60801.94295.json